sensor_id;sensor_type;location;lat;lon;timestamp;pressure;altitude;pressure_sealevel;temperature;humidity
76994;BME280;65927;47.508;19.002;2022-12-20T00:00:07;101654.69;;;0.13;74.67
76994;BME280;65927;47.508;19.002;2022-12-20T00:00:43;101653.88;;;0.17;75.29
76994;BME280;65927;47.508;19.002;2022-12-20T00:01:22;101657.25;;;0.14;75.94
76994;BME280;65927;47.508;19.002;2022-12-20T00:01:55;101654.72;;;0.16;75.47
76994;BME280;65927;47.508;19.002;2022-12-20T00:02:28;101657.25;;;0.13;74.88
76994;BME280;65927;47.508;19.002;2022-12-20T00:03:01;101657.25;;;0.13;75.09
76994;BME280;65927;47.508;19.002;2022-12-20T00:03:35;101660.66;;;0.13;75.27
76994;BME280;65927;47.508;19.002;2022-12-20T00:04:10;101660.66;;;0.15;76.19
76994;BME280;65927;47.508;19.002;2022-12-20T00:04:44;101663.28;;;0.16;75.41
76994;BME280;65927;47.508;19.002;2022-12-20T00:05:17;101664.97;;;0.16;75.74
76994;BME280;65927;47.508;19.002;2022-12-20T00:05:49;101662.41;;;0.16;75.29
76994;BME280;65927;47.508;19.002;2022-12-20T00:06:23;101670.13;;;0.19;74.97
76994;BME280;65927;47.508;19.002;2022-12-20T00:06:56;101658.16;;;0.18;76.00
76994;BME280;65927;47.508;19.002;2022-12-20T00:07:28;101670.97;;;0.18;75.08
76994;BME280;65927;47.508;19.002;2022-12-20T00:08:01;101670.97;;;0.19;75.61
76994;BME280;65927;47.508;19.002;2022-12-20T00:08:34;101667.56;;;0.19;75.68
76994;BME280;65927;47.508;19.002;2022-12-20T00:09:10;101677.84;;;0.20;74.94
76994;BME280;65927;47.508;19.002;2022-12-20T00:09:43;101674.41;;;0.20;74.72
76994;BME280;65927;47.508;19.002;2022-12-20T00:10:16;101676.13;;;0.21;75.34
76994;BME280;65927;47.508;19.002;2022-12-20T00:10:48;101678.69;;;0.19;75.33
76994;BME280;65927;47.508;19.002;2022-12-20T00:11:22;101686.38;;;0.22;75.25
76994;BME280;65927;47.508;19.002;2022-12-20T00:11:56;101679.53;;;0.21;75.72
76994;BME280;65927;47.508;19.002;2022-12-20T00:12:28;101680.41;;;0.22;75.63
76994;BME280;65927;47.508;19.002;2022-12-20T00:13:13;101679.59;;;0.23;75.45
76994;BME280;65927;47.508;19.002;2022-12-20T00:13:46;101674.47;;;0.26;74.89
76994;BME280;65927;47.508;19.002;2022-12-20T00:14:19;101677.88;;;0.25;75.21
76994;BME280;65927;47.508;19.002;2022-12-20T00:14:51;101673.59;;;0.25;75.37
76994;BME280;65927;47.508;19.002;2022-12-20T00:15:24;101671.88;;;0.23;74.29
76994;BME280;65927;47.508;19.002;2022-12-20T00:16:24;101666.75;;;0.24;74.44
76994;BME280;65927;47.508;19.002;2022-12-20T00:16:57;101674.44;;;0.23;75.34
76994;BME280;65927;47.508;19.002;2022-12-20T00:17:30;101677.88;;;0.26;74.34
76994;BME280;65927;47.508;19.002;2022-12-20T00:18:03;101664.19;;;0.26;75.38
76994;BME280;65927;47.508;19.002;2022-12-20T00:19:17;101670.19;;;0.28;75.09
76994;BME280;65927;47.508;19.002;2022-12-20T00:19:49;101669.31;;;0.29;74.55
76994;BME280;65927;47.508;19.002;2022-12-20T00:20:23;101670.22;;;0.31;74.74
76994;BME280;65927;47.508;19.002;2022-12-20T00:20:59;101674.50;;;0.31;74.90
76994;BME280;65927;47.508;19.002;2022-12-20T00:21:33;101671.94;;;0.34;75.48
76994;BME280;65927;47.508;19.002;2022-12-20T00:22:06;101671.94;;;0.34;74.27
76994;BME280;65927;47.508;19.002;2022-12-20T00:22:39;101677.06;;;0.32;74.81
76994;BME280;65927;47.508;19.002;2022-12-20T00:23:12;101679.63;;;0.32;74.23
76994;BME280;65927;47.508;19.002;2022-12-20T00:23:45;101672.78;;;0.31;74.61
76994;BME280;65927;47.508;19.002;2022-12-20T00:24:18;101679.63;;;0.32;75.04
76994;BME280;65927;47.508;19.002;2022-12-20T00:24:57;101681.34;;;0.33;74.63
76994;BME280;65927;47.508;19.002;2022-12-20T00:25:30;101677.06;;;0.34;74.82
76994;BME280;65927;47.508;19.002;2022-12-20T00:26:09;101677.94;;;0.33;75.01
76994;BME280;65927;47.508;19.002;2022-12-20T00:26:42;101680.50;;;0.33;74.85
76994;BME280;65927;47.508;19.002;2022-12-20T00:27:15;101676.19;;;0.30;73.94
76994;BME280;65927;47.508;19.002;2022-12-20T00:27:49;101666.81;;;0.32;73.95
76994;BME280;65927;47.508;19.002;2022-12-20T00:28:21;101665.09;;;0.33;74.50
76994;BME280;65927;47.508;19.002;2022-12-20T00:28:57;101659.97;;;0.36;73.97
76994;BME280;65927;47.508;19.002;2022-12-20T00:29:30;101660.81;;;0.35;74.07
76994;BME280;65927;47.508;19.002;2022-12-20T00:30:04;101655.69;;;0.36;74.39
76994;BME280;65927;47.508;19.002;2022-12-20T00:30:37;101654.84;;;0.37;74.01
76994;BME280;65927;47.508;19.002;2022-12-20T00:31:13;101655.69;;;0.38;74.58
76994;BME280;65927;47.508;19.002;2022-12-20T00:31:47;101654.81;;;0.34;73.90
76994;BME280;65927;47.508;19.002;2022-12-20T00:32:20;101659.09;;;0.35;74.51
76994;BME280;65927;47.508;19.002;2022-12-20T00:32:52;101655.69;;;0.35;73.99
76994;BME280;65927;47.508;19.002;2022-12-20T00:33:25;101654.00;;;0.38;74.28
76994;BME280;65927;47.508;19.002;2022-12-20T00:33:59;101653.97;;;0.35;73.99
76994;BME280;65927;47.508;19.002;2022-12-20T00:34:32;101657.38;;;0.34;75.20
76994;BME280;65927;47.508;19.002;2022-12-20T00:35:05;101647.97;;;0.35;73.94
76994;BME280;65927;47.508;19.002;2022-12-20T00:35:41;101659.09;;;0.35;74.52
76994;BME280;65927;47.508;19.002;2022-12-20T00:36:15;101654.81;;;0.36;74.78
76994;BME280;65927;47.508;19.002;2022-12-20T00:36:49;101656.53;;;0.37;73.96
76994;BME280;65927;47.508;19.002;2022-12-20T00:37:21;101658.25;;;0.36;74.06
76994;BME280;65927;47.508;19.002;2022-12-20T00:37:54;101653.97;;;0.37;73.86
76994;BME280;65927;47.508;19.002;2022-12-20T00:38:27;101647.13;;;0.37;74.53
76994;BME280;65927;47.508;19.002;2022-12-20T00:39:01;101651.44;;;0.40;74.53
76994;BME280;65927;47.508;19.002;2022-12-20T00:39:34;101654.00;;;0.40;73.88
76994;BME280;65927;47.508;19.002;2022-12-20T00:40:07;101650.59;;;0.39;73.90
76994;BME280;65927;47.508;19.002;2022-12-20T00:40:40;101647.16;;;0.39;74.92
76994;BME280;65927;47.508;19.002;2022-12-20T00:41:19;101642.03;;;0.39;73.79
76994;BME280;65927;47.508;19.002;2022-12-20T00:41:51;101643.75;;;0.38;73.53
76994;BME280;65927;47.508;19.002;2022-12-20T00:42:24;101646.31;;;0.38;73.96
76994;BME280;65927;47.508;19.002;2022-12-20T00:42:57;101645.44;;;0.39;73.89
76994;BME280;65927;47.508;19.002;2022-12-20T00:43:31;101647.16;;;0.40;74.36
76994;BME280;65927;47.508;19.002;2022-12-20T00:44:04;101640.31;;;0.42;73.75
76994;BME280;65927;47.508;19.002;2022-12-20T00:44:37;101646.34;;;0.46;73.88
76994;BME280;65927;47.508;19.002;2022-12-20T00:45:10;101636.03;;;0.44;74.18
76994;BME280;65927;47.508;19.002;2022-12-20T00:45:42;101640.31;;;0.42;74.71
76994;BME280;65927;47.508;19.002;2022-12-20T00:46:17;101631.75;;;0.40;74.07
76994;BME280;65927;47.508;19.002;2022-12-20T00:46:50;101640.31;;;0.44;73.43
76994;BME280;65927;47.508;19.002;2022-12-20T00:47:23;101640.31;;;0.42;74.24
76994;BME280;65927;47.508;19.002;2022-12-20T00:47:56;101637.75;;;0.44;73.61
76994;BME280;65927;47.508;19.002;2022-12-20T00:48:30;101636.03;;;0.43;73.73
76994;BME280;65927;47.508;19.002;2022-12-20T00:49:03;101635.19;;;0.39;74.25
76994;BME280;65927;47.508;19.002;2022-12-20T00:49:36;101642.88;;;0.41;74.64
76994;BME280;65927;47.508;19.002;2022-12-20T00:50:09;101639.47;;;0.40;74.71
76994;BME280;65927;47.508;19.002;2022-12-20T00:50:41;101638.59;;;0.41;73.70
76994;BME280;65927;47.508;19.002;2022-12-20T00:51:17;101635.19;;;0.41;73.54
76994;BME280;65927;47.508;19.002;2022-12-20T00:51:50;101634.31;;;0.39;74.36
76994;BME280;65927;47.508;19.002;2022-12-20T00:52:23;101632.59;;;0.38;73.65
76994;BME280;65927;47.508;19.002;2022-12-20T00:52:56;101630.91;;;0.38;74.14
76994;BME280;65927;47.508;19.002;2022-12-20T00:53:29;101624.06;;;0.39;73.78
76994;BME280;65927;47.508;19.002;2022-12-20T00:54:02;101633.44;;;0.37;73.54
76994;BME280;65927;47.508;19.002;2022-12-20T00:54:36;101618.91;;;0.39;73.87
76994;BME280;65927;47.508;19.002;2022-12-20T00:55:08;101622.31;;;0.36;73.59
76994;BME280;65927;47.508;19.002;2022-12-20T00:55:43;101620.59;;;0.35;74.06
76994;BME280;65927;47.508;19.002;2022-12-20T00:56:17;101623.22;;;0.40;74.01
76994;BME280;65927;47.508;19.002;2022-12-20T00:56:50;101619.75;;;0.38;73.07
76994;BME280;65927;47.508;19.002;2022-12-20T00:57:23;101623.19;;;0.38;73.55
76994;BME280;65927;47.508;19.002;2022-12-20T00:57:56;101624.03;;;0.37;74.53
76994;BME280;65927;47.508;19.002;2022-12-20T00:58:34;101618.88;;;0.37;74.02
76994;BME280;65927;47.508;19.002;2022-12-20T00:59:08;101622.31;;;0.38;74.13
76994;BME280;65927;47.508;19.002;2022-12-20T00:59:40;101625.78;;;0.40;74.14
76994;BME280;65927;47.508;19.002;2022-12-20T01:00:13;101618.06;;;0.38;73.55
76994;BME280;65927;47.508;19.002;2022-12-20T01:00:47;101627.44;;;0.38;74.36
76994;BME280;65927;47.508;19.002;2022-12-20T01:01:31;101618.06;;;0.38;74.43
76994;BME280;65927;47.508;19.002;2022-12-20T01:02:04;101615.50;;;0.38;74.37
76994;BME280;65927;47.508;19.002;2022-12-20T01:02:37;101615.50;;;0.38;74.16
76994;BME280;65927;47.508;19.002;2022-12-20T01:03:10;101618.06;;;0.40;73.51
76994;BME280;65927;47.508;19.002;2022-12-20T01:03:44;101616.34;;;0.40;73.73
76994;BME280;65927;47.508;19.002;2022-12-20T01:04:17;101617.22;;;0.41;74.13
76994;BME280;65927;47.508;19.002;2022-12-20T01:04:49;101618.94;;;0.42;74.08
76994;BME280;65927;47.508;19.002;2022-12-20T01:05:22;101614.66;;;0.42;73.76
76994;BME280;65927;47.508;19.002;2022-12-20T01:06:01;101616.34;;;0.42;74.22
76994;BME280;65927;47.508;19.002;2022-12-20T01:06:35;101618.06;;;0.38;73.85
76994;BME280;65927;47.508;19.002;2022-12-20T01:07:08;101618.03;;;0.37;73.42
76994;BME280;65927;47.508;19.002;2022-12-20T01:07:41;101611.22;;;0.39;73.44
76994;BME280;65927;47.508;19.002;2022-12-20T01:08:13;101616.34;;;0.40;73.33
76994;BME280;65927;47.508;19.002;2022-12-20T01:08:47;101614.59;;;0.36;74.20
76994;BME280;65927;47.508;19.002;2022-12-20T01:09:20;101622.31;;;0.38;74.11
76994;BME280;65927;47.508;19.002;2022-12-20T01:09:52;101615.47;;;0.37;73.26
76994;BME280;65927;47.508;19.002;2022-12-20T01:10:26;101612.91;;;0.35;73.42
76994;BME280;65927;47.508;19.002;2022-12-20T01:12:06;101616.31;;;0.37;73.69
76994;BME280;65927;47.508;19.002;2022-12-20T01:12:38;101618.06;;;0.38;74.33
76994;BME280;65927;47.508;19.002;2022-12-20T01:13:11;101619.75;;;0.38;73.34
76994;BME280;65927;47.508;19.002;2022-12-20T01:13:57;101618.03;;;0.35;73.62
76994;BME280;65927;47.508;19.002;2022-12-20T01:14:29;101616.31;;;0.34;73.47
76994;BME280;65927;47.508;19.002;2022-12-20T01:15:02;101618.88;;;0.33;73.96
76994;BME280;65927;47.508;19.002;2022-12-20T01:15:35;101614.56;;;0.30;74.37
76994;BME280;65927;47.508;19.002;2022-12-20T01:16:15;101618.84;;;0.30;73.54
76994;BME280;65927;47.508;19.002;2022-12-20T01:16:48;101618.03;;;0.34;73.65
76994;BME280;65927;47.508;19.002;2022-12-20T01:17:21;101618.03;;;0.31;74.21
76994;BME280;65927;47.508;19.002;2022-12-20T01:17:54;101626.59;;;0.31;74.51
76994;BME280;65927;47.508;19.002;2022-12-20T01:18:26;101618.88;;;0.31;73.74
76994;BME280;65927;47.508;19.002;2022-12-20T01:19:00;101619.69;;;0.25;74.16
76994;BME280;65927;47.508;19.002;2022-12-20T01:19:33;101623.13;;;0.26;73.57
76994;BME280;65927;47.508;19.002;2022-12-20T01:20:06;101622.25;;;0.28;73.75
76994;BME280;65927;47.508;19.002;2022-12-20T01:20:39;101620.56;;;0.27;73.45
76994;BME280;65927;47.508;19.002;2022-12-20T01:21:14;101616.22;;;0.22;74.28
76994;BME280;65927;47.508;19.002;2022-12-20T01:21:47;101621.41;;;0.23;73.93
76994;BME280;65927;47.508;19.002;2022-12-20T01:22:20;101614.56;;;0.25;74.03
76994;BME280;65927;47.508;19.002;2022-12-20T01:22:53;101618.84;;;0.25;74.08
76994;BME280;65927;47.508;19.002;2022-12-20T01:23:27;101623.13;;;0.23;73.46
76994;BME280;65927;47.508;19.002;2022-12-20T01:24:00;101617.97;;;0.23;74.50
76994;BME280;65927;47.508;19.002;2022-12-20T01:24:32;101612.84;;;0.26;74.26
76994;BME280;65927;47.508;19.002;2022-12-20T01:25:05;101615.41;;;0.26;74.25
76994;BME280;65927;47.508;19.002;2022-12-20T01:25:38;101612.84;;;0.26;74.47
76994;BME280;65927;47.508;19.002;2022-12-20T01:26:14;101613.69;;;0.23;74.79
76994;BME280;65927;47.508;19.002;2022-12-20T01:26:48;101608.53;;;0.20;74.04
76994;BME280;65927;47.508;19.002;2022-12-20T01:27:20;101610.25;;;0.20;73.96
76994;BME280;65927;47.508;19.002;2022-12-20T01:27:53;101609.38;;;0.21;74.65
76994;BME280;65927;47.508;19.002;2022-12-20T01:28:27;101605.13;;;0.21;73.89
76994;BME280;65927;47.508;19.002;2022-12-20T01:29:00;101602.56;;;0.23;74.89
76994;BME280;65927;47.508;19.002;2022-12-20T01:29:33;101605.13;;;0.21;74.28
76994;BME280;65927;47.508;19.002;2022-12-20T01:30:06;101600.88;;;0.23;73.82
76994;BME280;65927;47.508;19.002;2022-12-20T01:30:40;101599.13;;;0.21;74.39
76994;BME280;65927;47.508;19.002;2022-12-20T01:31:15;101593.13;;;0.20;74.49
76994;BME280;65927;47.508;19.002;2022-12-20T01:31:49;101601.69;;;0.21;74.26
76994;BME280;65927;47.508;19.002;2022-12-20T01:32:21;101590.56;;;0.20;75.03
76994;BME280;65927;47.508;19.002;2022-12-20T01:32:54;101591.44;;;0.22;74.35
76994;BME280;65927;47.508;19.002;2022-12-20T01:33:27;101587.19;;;0.23;73.99
76994;BME280;65927;47.508;19.002;2022-12-20T01:34:00;101589.75;;;0.24;74.62
76994;BME280;65927;47.508;19.002;2022-12-20T01:34:33;101598.31;;;0.25;74.95
76994;BME280;65927;47.508;19.002;2022-12-20T01:35:06;101588.00;;;0.22;74.50
76994;BME280;65927;47.508;19.002;2022-12-20T01:35:39;101592.31;;;0.24;74.06
76994;BME280;65927;47.508;19.002;2022-12-20T01:36:17;101581.16;;;0.22;74.33
76994;BME280;65927;47.508;19.002;2022-12-20T01:36:50;101588.03;;;0.23;74.92
76994;BME280;65927;47.508;19.002;2022-12-20T01:37:23;101582.03;;;0.24;74.06
76994;BME280;65927;47.508;19.002;2022-12-20T01:37:56;101587.19;;;0.23;74.09
76994;BME280;65927;47.508;19.002;2022-12-20T01:38:29;101582.88;;;0.22;74.41
76994;BME280;65927;47.508;19.002;2022-12-20T01:39:11;101585.47;;;0.25;74.74
76994;BME280;65927;47.508;19.002;2022-12-20T01:39:44;101583.75;;;0.24;74.62
76994;BME280;65927;47.508;19.002;2022-12-20T01:40:17;101574.34;;;0.23;74.02
76994;BME280;65927;47.508;19.002;2022-12-20T01:40:51;101580.34;;;0.25;74.34
76994;BME280;65927;47.508;19.002;2022-12-20T01:41:25;101576.91;;;0.23;74.05
76994;BME280;65927;47.508;19.002;2022-12-20T01:41:58;101584.56;;;0.18;74.24
76994;BME280;65927;47.508;19.002;2022-12-20T01:42:30;101576.88;;;0.20;74.34
76994;BME280;65927;47.508;19.002;2022-12-20T01:43:03;101566.59;;;0.20;74.52
76994;BME280;65927;47.508;19.002;2022-12-20T01:44:03;101571.75;;;0.17;74.23
76994;BME280;65927;47.508;19.002;2022-12-20T01:45:26;101565.75;;;0.16;74.58
76994;BME280;65927;47.508;19.002;2022-12-20T01:46:00;101569.19;;;0.20;74.96
76994;BME280;65927;47.508;19.002;2022-12-20T01:46:34;101574.31;;;0.20;75.11
76994;BME280;65927;47.508;19.002;2022-12-20T01:47:11;101573.41;;;0.15;74.68
76994;BME280;65927;47.508;19.002;2022-12-20T01:47:44;101574.31;;;0.15;75.06
76994;BME280;65927;47.508;19.002;2022-12-20T01:48:21;101575.13;;;0.14;75.41
76994;BME280;65927;47.508;19.002;2022-12-20T01:49:11;101570.84;;;0.15;74.19
76994;BME280;65927;47.508;19.002;2022-12-20T01:49:48;101570.88;;;0.16;75.19
76994;BME280;65927;47.508;19.002;2022-12-20T01:50:24;101570.88;;;0.21;75.03
76994;BME280;65927;47.508;19.002;2022-12-20T01:50:58;101568.31;;;0.18;75.02
76994;BME280;65927;47.508;19.002;2022-12-20T01:51:34;101564.91;;;0.19;74.29
76994;BME280;65927;47.508;19.002;2022-12-20T01:52:13;101564.91;;;0.16;74.82
76994;BME280;65927;47.508;19.002;2022-12-20T01:52:47;101564.03;;;0.15;73.95
76994;BME280;65927;47.508;19.002;2022-12-20T01:53:22;101564.03;;;0.20;75.09
76994;BME280;65927;47.508;19.002;2022-12-20T01:54:02;101557.19;;;0.22;74.14
76994;BME280;65927;47.508;19.002;2022-12-20T01:55:25;101542.66;;;0.21;74.57
76994;BME280;65927;47.508;19.002;2022-12-20T01:56:03;101546.06;;;0.21;74.58
76994;BME280;65927;47.508;19.002;2022-12-20T01:56:39;101547.78;;;0.22;75.05
76994;BME280;65927;47.508;19.002;2022-12-20T01:57:20;101535.81;;;0.20;74.12
76994;BME280;65927;47.508;19.002;2022-12-20T01:58:06;101525.53;;;0.21;74.72
76994;BME280;65927;47.508;19.002;2022-12-20T01:58:41;101532.38;;;0.22;74.76
76994;BME280;65927;47.508;19.002;2022-12-20T01:59:15;101520.44;;;0.24;74.19
76994;BME280;65927;47.508;19.002;2022-12-20T01:59:50;101523.88;;;0.25;74.45
76994;BME280;65927;47.508;19.002;2022-12-20T02:00:24;101521.28;;;0.22;74.86
76994;BME280;65927;47.508;19.002;2022-12-20T02:00:57;101528.13;;;0.21;74.47
76994;BME280;65927;47.508;19.002;2022-12-20T02:01:31;101522.13;;;0.22;74.40
76994;BME280;65927;47.508;19.002;2022-12-20T02:02:07;101524.69;;;0.22;73.91
76994;BME280;65927;47.508;19.002;2022-12-20T02:02:52;101524.69;;;0.21;73.88
76994;BME280;65927;47.508;19.002;2022-12-20T02:03:26;101530.69;;;0.20;73.85
76994;BME280;65927;47.508;19.002;2022-12-20T02:04:01;101528.97;;;0.19;74.71
76994;BME280;65927;47.508;19.002;2022-12-20T02:04:35;101533.25;;;0.18;73.94
76994;BME280;65927;47.508;19.002;2022-12-20T02:05:08;101537.53;;;0.21;73.52
76994;BME280;65927;47.508;19.002;2022-12-20T02:05:43;101536.66;;;0.20;73.68
76994;BME280;65927;47.508;19.002;2022-12-20T02:06:22;101521.28;;;0.19;73.79
76994;BME280;65927;47.508;19.002;2022-12-20T02:06:58;101534.97;;;0.19;74.83
76994;BME280;65927;47.508;19.002;2022-12-20T02:07:35;101530.63;;;0.14;75.25
76994;BME280;65927;47.508;19.002;2022-12-20T02:08:10;101534.09;;;0.16;74.25
76994;BME280;65927;47.508;19.002;2022-12-20T02:08:47;101530.69;;;0.17;74.77
76994;BME280;65927;47.508;19.002;2022-12-20T02:09:22;101531.53;;;0.17;73.87
76994;BME280;65927;47.508;19.002;2022-12-20T02:09:58;101530.69;;;0.17;74.70
76994;BME280;65927;47.508;19.002;2022-12-20T02:10:59;101533.25;;;0.15;74.79
76994;BME280;65927;47.508;19.002;2022-12-20T02:12:02;101532.34;;;0.09;75.20
76994;BME280;65927;47.508;19.002;2022-12-20T02:12:45;101530.59;;;0.05;74.66
76994;BME280;65927;47.508;19.002;2022-12-20T02:15:54;101524.63;;;0.07;74.97
76994;BME280;65927;47.508;19.002;2022-12-20T02:16:31;101523.78;;;0.10;74.94
76994;BME280;65927;47.508;19.002;2022-12-20T02:18:10;101508.41;;;0.13;74.28
76994;BME280;65927;47.508;19.002;2022-12-20T02:20:02;101520.34;;;0.05;74.78
76994;BME280;65927;47.508;19.002;2022-12-20T02:27:40;101533.16;;;0.02;75.94
76994;BME280;65927;47.508;19.002;2022-12-20T02:28:33;101534.03;;;0.01;75.17
76994;BME280;65927;47.508;19.002;2022-12-20T02:29:20;101532.31;;;0.04;74.52
76994;BME280;65927;47.508;19.002;2022-12-20T02:30:08;101533.16;;;0.03;74.86
76994;BME280;65927;47.508;19.002;2022-12-20T02:30:44;101528.84;;;-0.03;75.00
76994;BME280;65927;47.508;19.002;2022-12-20T02:31:25;101530.56;;;-0.02;74.62
76994;BME280;65927;47.508;19.002;2022-12-20T02:32:03;101530.56;;;-0.03;74.69
76994;BME280;65927;47.508;19.002;2022-12-20T02:33:21;101522.00;;;-0.04;75.05
76994;BME280;65927;47.508;19.002;2022-12-20T02:33:57;101529.72;;;-0.01;75.48
76994;BME280;65927;47.508;19.002;2022-12-20T02:34:33;101531.44;;;0.01;75.36
76994;BME280;65927;47.508;19.002;2022-12-20T02:35:11;101529.72;;;-0.02;75.18
76994;BME280;65927;47.508;19.002;2022-12-20T02:35:44;101531.44;;;0.01;75.09
76994;BME280;65927;47.508;19.002;2022-12-20T02:36:17;101527.13;;;-0.04;74.83
76994;BME280;65927;47.508;19.002;2022-12-20T02:36:51;101531.41;;;-0.04;74.63
76994;BME280;65927;47.508;19.002;2022-12-20T02:37:24;101526.28;;;-0.03;74.32
76994;BME280;65927;47.508;19.002;2022-12-20T02:38:01;101527.19;;;0.01;74.50
76994;BME280;65927;47.508;19.002;2022-12-20T02:38:37;101528.03;;;0.03;74.19
76994;BME280;65927;47.508;19.002;2022-12-20T02:39:15;101534.03;;;0.04;75.25
76994;BME280;65927;47.508;19.002;2022-12-20T02:39:49;101528.88;;;0.04;74.87
76994;BME280;65927;47.508;19.002;2022-12-20T02:40:47;101533.16;;;0.03;74.94
76994;BME280;65927;47.508;19.002;2022-12-20T02:41:31;101529.75;;;0.04;75.14
76994;BME280;65927;47.508;19.002;2022-12-20T02:42:09;101533.16;;;0.02;74.86
76994;BME280;65927;47.508;19.002;2022-12-20T02:42:43;101530.59;;;0.02;75.47
76994;BME280;65927;47.508;19.002;2022-12-20T02:43:17;101524.63;;;0.06;75.27
76994;BME280;65927;47.508;19.002;2022-12-20T02:44:12;101526.38;;;0.08;74.94
76994;BME280;65927;47.508;19.002;2022-12-20T02:45:09;101521.19;;;0.07;74.12
76994;BME280;65927;47.508;19.002;2022-12-20T02:45:49;101523.75;;;0.07;75.21
76994;BME280;65927;47.508;19.002;2022-12-20T02:46:23;101520.34;;;0.02;74.50
76994;BME280;65927;47.508;19.002;2022-12-20T02:47:01;101523.75;;;0.01;75.19
76994;BME280;65927;47.508;19.002;2022-12-20T02:48:24;101520.34;;;0.05;75.07
76994;BME280;65927;47.508;19.002;2022-12-20T02:49:08;101518.66;;;0.08;75.33
76994;BME280;65927;47.508;19.002;2022-12-20T02:49:45;101528.94;;;0.10;75.21
76994;BME280;65927;47.508;19.002;2022-12-20T02:50:27;101520.38;;;0.11;74.11
76994;BME280;65927;47.508;19.002;2022-12-20T02:51:04;101516.09;;;0.13;74.86
76994;BME280;65927;47.508;19.002;2022-12-20T02:51:40;101522.09;;;0.12;74.87
76994;BME280;65927;47.508;19.002;2022-12-20T02:52:18;101507.53;;;0.12;74.26
76994;BME280;65927;47.508;19.002;2022-12-20T02:52:53;101507.53;;;0.12;74.29
76994;BME280;65927;47.508;19.002;2022-12-20T02:53:26;101518.66;;;0.11;74.99
76994;BME280;65927;47.508;19.002;2022-12-20T02:54:01;101513.50;;;0.07;75.39
76994;BME280;65927;47.508;19.002;2022-12-20T02:54:36;101507.53;;;0.08;74.98
76994;BME280;65927;47.508;19.002;2022-12-20T02:55:10;101504.97;;;0.11;74.09
76994;BME280;65927;47.508;19.002;2022-12-20T02:55:58;101498.13;;;0.14;74.56
76994;BME280;65927;47.508;19.002;2022-12-20T02:56:49;101497.28;;;0.14;74.01
76994;BME280;65927;47.508;19.002;2022-12-20T02:57:37;101499.84;;;0.14;74.74
76994;BME280;65927;47.508;19.002;2022-12-20T02:58:22;101492.16;;;0.14;73.67
76994;BME280;65927;47.508;19.002;2022-12-20T02:59:26;101493.84;;;0.12;74.91
76994;BME280;65927;47.508;19.002;2022-12-20T03:00:15;101490.44;;;0.14;73.86
76994;BME280;65927;47.508;19.002;2022-12-20T03:00:50;101482.75;;;0.13;74.19
76994;BME280;65927;47.508;19.002;2022-12-20T03:01:35;101486.16;;;0.12;73.88
76994;BME280;65927;47.508;19.002;2022-12-20T03:02:10;101484.44;;;0.14;73.89
76994;BME280;65927;47.508;19.002;2022-12-20T03:02:44;101486.16;;;0.13;74.09
76994;BME280;65927;47.508;19.002;2022-12-20T03:03:37;101484.44;;;0.08;73.56
76994;BME280;65927;47.508;19.002;2022-12-20T03:04:10;101489.59;;;0.08;74.27
76994;BME280;65927;47.508;19.002;2022-12-20T03:04:45;101490.44;;;0.10;74.79
76994;BME280;65927;47.508;19.002;2022-12-20T03:05:22;101493.00;;;0.10;74.42
76994;BME280;65927;47.508;19.002;2022-12-20T03:05:55;101490.44;;;0.10;74.30
76994;BME280;65927;47.508;19.002;2022-12-20T03:06:28;101490.44;;;0.13;73.91
76994;BME280;65927;47.508;19.002;2022-12-20T03:07:05;101499.84;;;0.12;73.69
76994;BME280;65927;47.508;19.002;2022-12-20T03:07:38;101491.25;;;0.06;74.57
76994;BME280;65927;47.508;19.002;2022-12-20T03:08:11;101488.72;;;0.12;74.38
76994;BME280;65927;47.508;19.002;2022-12-20T03:08:43;101493.00;;;0.13;74.86
76994;BME280;65927;47.508;19.002;2022-12-20T03:09:16;101485.31;;;0.13;73.81
76994;BME280;65927;47.508;19.002;2022-12-20T03:09:49;101482.75;;;0.13;74.61
76994;BME280;65927;47.508;19.002;2022-12-20T03:10:22;101483.59;;;0.15;74.67
76994;BME280;65927;47.508;19.002;2022-12-20T03:10:55;101487.88;;;0.14;74.47
76994;BME280;65927;47.508;19.002;2022-12-20T03:11:28;101487.00;;;0.14;74.54
76994;BME280;65927;47.508;19.002;2022-12-20T03:12:02;101484.47;;;0.15;74.29
76994;BME280;65927;47.508;19.002;2022-12-20T03:12:35;101477.59;;;0.13;74.50
76994;BME280;65927;47.508;19.002;2022-12-20T03:13:07;101483.63;;;0.16;74.82
76994;BME280;65927;47.508;19.002;2022-12-20T03:13:40;101481.91;;;0.15;73.48
76994;BME280;65927;47.508;19.002;2022-12-20T03:14:13;101480.19;;;0.11;73.74
76994;BME280;65927;47.508;19.002;2022-12-20T03:14:46;101477.59;;;0.10;73.71
76994;BME280;65927;47.508;19.002;2022-12-20T03:15:19;101487.88;;;0.10;74.27
76994;BME280;65927;47.508;19.002;2022-12-20T03:15:51;101480.19;;;0.11;73.87
76994;BME280;65927;47.508;19.002;2022-12-20T03:16:24;101483.59;;;0.12;73.97
76994;BME280;65927;47.508;19.002;2022-12-20T03:16:57;101485.31;;;0.11;74.93
76994;BME280;65927;47.508;19.002;2022-12-20T03:17:30;101484.44;;;0.14;73.96
76994;BME280;65927;47.508;19.002;2022-12-20T03:18:03;101481.03;;;0.13;74.57
76994;BME280;65927;47.508;19.002;2022-12-20T03:18:37;101479.31;;;0.11;74.64
76994;BME280;65927;47.508;19.002;2022-12-20T03:19:10;101479.31;;;0.12;74.73
76994;BME280;65927;47.508;19.002;2022-12-20T03:19:43;101476.75;;;0.11;73.98
76994;BME280;65927;47.508;19.002;2022-12-20T03:20:16;101475.00;;;0.04;74.56
76994;BME280;65927;47.508;19.002;2022-12-20T03:20:49;101475.88;;;0.06;74.13
76994;BME280;65927;47.508;19.002;2022-12-20T03:21:21;101472.47;;;0.10;73.72
76994;BME280;65927;47.508;19.002;2022-12-20T03:21:54;101470.75;;;0.12;74.55
76994;BME280;65927;47.508;19.002;2022-12-20T03:22:27;101473.31;;;0.12;73.92